sensor_id;sensor_type;location;lat;lon;timestamp;P1;durP1;ratioP1;P2;durP2;ratioP2
13943;SDS011;7044;53.286;8.534;2022-08-21T00:02:23;2.78;;;2.20;;
13943;SDS011;7044;53.286;8.534;2022-08-21T00:04:53;2.85;;;2.13;;
13943;SDS011;7044;53.286;8.534;2022-08-21T00:07:20;4.97;;;2.40;;
13943;SDS011;7044;53.286;8.534;2022-08-21T00:09:47;3.75;;;2.38;;
13943;SDS011;7044;53.286;8.534;2022-08-21T00:12:14;3.13;;;2.35;;
13943;SDS011;7044;53.286;8.534;2022-08-21T00:14:41;5.15;;;2.33;;
13943;SDS011;7044;53.286;8.534;2022-08-21T00:17:07;3.05;;;2.40;;
13943;SDS011;7044;53.286;8.534;2022-08-21T00:19:35;2.78;;;2.17;;
13943;SDS011;7044;53.286;8.534;2022-08-21T00:22:02;2.33;;;2.05;;
13943;SDS011;7044;53.286;8.534;2022-08-21T00:24:29;4.45;;;2.30;;
13943;SDS011;7044;53.286;8.534;2022-08-21T00:26:56;3.35;;;2.30;;
13943;SDS011;7044;53.286;8.534;2022-08-21T00:29:23;3.05;;;1.95;;
13943;SDS011;7044;53.286;8.534;2022-08-21T00:31:50;2.60;;;2.03;;
13943;SDS011;7044;53.286;8.534;2022-08-21T00:34:17;3.78;;;2.30;;
13943;SDS011;7044;53.286;8.534;2022-08-21T00:36:45;3.90;;;1.98;;
13943;SDS011;7044;53.286;8.534;2022-08-21T00:39:12;3.50;;;2.03;;
13943;SDS011;7044;53.286;8.534;2022-08-21T00:41:40;3.67;;;2.03;;
13943;SDS011;7044;53.286;8.534;2022-08-21T00:44:09;3.55;;;2.72;;
13943;SDS011;7044;53.286;8.534;2022-08-21T00:46:37;4.63;;;2.08;;
13943;SDS011;7044;53.286;8.534;2022-08-21T00:49:05;5.03;;;2.25;;
13943;SDS011;7044;53.286;8.534;2022-08-21T00:51:33;3.33;;;1.98;;
13943;SDS011;7044;53.286;8.534;2022-08-21T00:54:05;4.35;;;2.30;;
13943;SDS011;7044;53.286;8.534;2022-08-21T00:56:33;4.50;;;2.10;;
13943;SDS011;7044;53.286;8.534;2022-08-21T00:59:00;2.60;;;2.28;;
13943;SDS011;7044;53.286;8.534;2022-08-21T01:01:28;4.03;;;2.00;;
13943;SDS011;7044;53.286;8.534;2022-08-21T01:03:55;3.60;;;2.40;;
13943;SDS011;7044;53.286;8.534;2022-08-21T01:06:22;2.78;;;2.20;;
13943;SDS011;7044;53.286;8.534;2022-08-21T01:08:49;5.10;;;2.10;;
13943;SDS011;7044;53.286;8.534;2022-08-21T01:11:18;4.43;;;2.55;;
13943;SDS011;7044;53.286;8.534;2022-08-21T01:13:46;7.32;;;2.17;;
13943;SDS011;7044;53.286;8.534;2022-08-21T01:16:15;6.78;;;2.08;;
13943;SDS011;7044;53.286;8.534;2022-08-21T01:18:45;3.50;;;2.20;;
13943;SDS011;7044;53.286;8.534;2022-08-21T01:21:15;3.45;;;2.15;;
13943;SDS011;7044;53.286;8.534;2022-08-21T01:23:44;5.60;;;2.22;;
13943;SDS011;7044;53.286;8.534;2022-08-21T01:26:13;2.40;;;1.95;;
13943;SDS011;7044;53.286;8.534;2022-08-21T01:28:44;3.05;;;2.05;;
13943;SDS011;7044;53.286;8.534;2022-08-21T01:31:14;5.30;;;2.42;;
13943;SDS011;7044;53.286;8.534;2022-08-21T01:33:43;2.67;;;2.17;;
13943;SDS011;7044;53.286;8.534;2022-08-21T01:36:10;2.83;;;2.08;;
13943;SDS011;7044;53.286;8.534;2022-08-21T01:38:38;5.18;;;2.38;;
13943;SDS011;7044;53.286;8.534;2022-08-21T01:41:05;3.38;;;2.17;;
13943;SDS011;7044;53.286;8.534;2022-08-21T01:43:32;7.07;;;2.30;;
13943;SDS011;7044;53.286;8.534;2022-08-21T01:45:59;3.25;;;2.30;;
13943;SDS011;7044;53.286;8.534;2022-08-21T01:48:25;6.32;;;2.67;;
13943;SDS011;7044;53.286;8.534;2022-08-21T01:50:52;4.88;;;2.20;;
13943;SDS011;7044;53.286;8.534;2022-08-21T01:53:19;4.38;;;2.75;;
13943;SDS011;7044;53.286;8.534;2022-08-21T01:55:47;8.57;;;2.42;;
13943;SDS011;7044;53.286;8.534;2022-08-21T01:58:14;3.70;;;2.03;;
13943;SDS011;7044;53.286;8.534;2022-08-21T02:00:41;3.72;;;2.50;;
13943;SDS011;7044;53.286;8.534;2022-08-21T02:03:08;4.38;;;2.38;;
13943;SDS011;7044;53.286;8.534;2022-08-21T02:05:35;4.35;;;2.60;;
13943;SDS011;7044;53.286;8.534;2022-08-21T02:08:02;5.15;;;2.42;;
13943;SDS011;7044;53.286;8.534;2022-08-21T02:10:31;3.88;;;2.75;;
13943;SDS011;7044;53.286;8.534;2022-08-21T02:13:00;8.05;;;2.65;;
13943;SDS011;7044;53.286;8.534;2022-08-21T02:15:27;5.85;;;2.38;;
13943;SDS011;7044;53.286;8.534;2022-08-21T02:17:59;7.28;;;2.22;;
13943;SDS011;7044;53.286;8.534;2022-08-21T02:20:31;3.38;;;2.65;;
13943;SDS011;7044;53.286;8.534;2022-08-21T02:23:00;3.55;;;2.28;;
13943;SDS011;7044;53.286;8.534;2022-08-21T02:25:27;4.15;;;2.42;;
13943;SDS011;7044;53.286;8.534;2022-08-21T02:27:55;4.53;;;2.30;;
13943;SDS011;7044;53.286;8.534;2022-08-21T02:30:25;5.00;;;2.28;;
13943;SDS011;7044;53.286;8.534;2022-08-21T02:32:54;4.40;;;2.30;;
13943;SDS011;7044;53.286;8.534;2022-08-21T02:35:21;4.15;;;2.60;;
13943;SDS011;7044;53.286;8.534;2022-08-21T02:37:49;4.38;;;2.53;;
13943;SDS011;7044;53.286;8.534;2022-08-21T02:40:19;3.40;;;2.40;;
13943;SDS011;7044;53.286;8.534;2022-08-21T02:42:48;5.30;;;2.50;;
13943;SDS011;7044;53.286;8.534;2022-08-21T02:45:15;4.40;;;2.00;;
13943;SDS011;7044;53.286;8.534;2022-08-21T02:47:48;3.22;;;2.15;;
13943;SDS011;7044;53.286;8.534;2022-08-21T02:50:17;6.43;;;2.40;;
13943;SDS011;7044;53.286;8.534;2022-08-21T02:52:45;3.45;;;2.25;;
13943;SDS011;7044;53.286;8.534;2022-08-21T02:55:12;7.97;;;2.50;;
13943;SDS011;7044;53.286;8.534;2022-08-21T02:57:39;4.22;;;2.47;;
13943;SDS011;7044;53.286;8.534;2022-08-21T03:00:07;3.03;;;2.22;;
13943;SDS011;7044;53.286;8.534;2022-08-21T03:02:36;3.35;;;2.00;;
13943;SDS011;7044;53.286;8.534;2022-08-21T03:05:05;6.47;;;2.63;;
13943;SDS011;7044;53.286;8.534;2022-08-21T03:07:33;3.75;;;2.08;;
13943;SDS011;7044;53.286;8.534;2022-08-21T03:10:00;4.25;;;2.30;;
13943;SDS011;7044;53.286;8.534;2022-08-21T03:12:27;8.77;;;2.22;;
13943;SDS011;7044;53.286;8.534;2022-08-21T03:14:53;4.03;;;2.33;;
13943;SDS011;7044;53.286;8.534;2022-08-21T03:17:20;3.88;;;2.22;;
13943;SDS011;7044;53.286;8.534;2022-08-21T03:19:47;2.35;;;1.90;;
13943;SDS011;7044;53.286;8.534;2022-08-21T03:22:15;8.23;;;2.58;;
13943;SDS011;7044;53.286;8.534;2022-08-21T03:24:42;4.47;;;2.38;;
13943;SDS011;7044;53.286;8.534;2022-08-21T03:27:10;7.03;;;2.30;;
13943;SDS011;7044;53.286;8.534;2022-08-21T03:29:37;4.53;;;2.35;;
13943;SDS011;7044;53.286;8.534;2022-08-21T03:32:05;5.50;;;2.03;;
13943;SDS011;7044;53.286;8.534;2022-08-21T03:34:34;5.13;;;2.20;;
13943;SDS011;7044;53.286;8.534;2022-08-21T03:37:01;6.28;;;2.20;;
13943;SDS011;7044;53.286;8.534;2022-08-21T03:39:30;6.13;;;2.28;;
13943;SDS011;7044;53.286;8.534;2022-08-21T03:41:57;3.65;;;2.15;;
13943;SDS011;7044;53.286;8.534;2022-08-21T03:44:24;5.57;;;2.30;;
13943;SDS011;7044;53.286;8.534;2022-08-21T03:46:55;5.00;;;2.65;;
13943;SDS011;7044;53.286;8.534;2022-08-21T03:49:22;6.30;;;2.25;;
13943;SDS011;7044;53.286;8.534;2022-08-21T03:51:49;6.97;;;2.22;;
13943;SDS011;7044;53.286;8.534;2022-08-21T03:54:16;7.65;;;2.15;;
13943;SDS011;7044;53.286;8.534;2022-08-21T03:56:45;4.45;;;2.47;;
13943;SDS011;7044;53.286;8.534;2022-08-21T03:59:12;3.60;;;1.90;;
13943;SDS011;7044;53.286;8.534;2022-08-21T04:01:39;3.72;;;1.92;;
13943;SDS011;7044;53.286;8.534;2022-08-21T04:04:16;2.55;;;2.10;;
13943;SDS011;7044;53.286;8.534;2022-08-21T04:06:43;5.68;;;2.13;;
13943;SDS011;7044;53.286;8.534;2022-08-21T04:09:10;5.68;;;2.70;;
13943;SDS011;7044;53.286;8.534;2022-08-21T04:11:36;3.58;;;2.08;;
13943;SDS011;7044;53.286;8.534;2022-08-21T04:14:05;9.07;;;2.90;;
13943;SDS011;7044;53.286;8.534;2022-08-21T04:16:31;7.32;;;2.00;;
13943;SDS011;7044;53.286;8.534;2022-08-21T04:18:58;3.58;;;2.25;;
13943;SDS011;7044;53.286;8.534;2022-08-21T04:21:26;6.45;;;2.28;;
13943;SDS011;7044;53.286;8.534;2022-08-21T04:23:54;5.30;;;2.15;;
13943;SDS011;7044;53.286;8.534;2022-08-21T04:26:21;3.58;;;1.95;;
13943;SDS011;7044;53.286;8.534;2022-08-21T04:28:48;3.75;;;1.80;;
13943;SDS011;7044;53.286;8.534;2022-08-21T04:31:16;4.85;;;2.10;;
13943;SDS011;7044;53.286;8.534;2022-08-21T04:33:43;7.43;;;2.38;;
13943;SDS011;7044;53.286;8.534;2022-08-21T04:36:10;3.08;;;2.15;;
13943;SDS011;7044;53.286;8.534;2022-08-21T04:38:37;2.45;;;2.25;;
13943;SDS011;7044;53.286;8.534;2022-08-21T04:41:04;2.50;;;2.30;;
13943;SDS011;7044;53.286;8.534;2022-08-21T04:43:31;5.18;;;2.30;;
13943;SDS011;7044;53.286;8.534;2022-08-21T04:45:58;4.28;;;2.17;;
13943;SDS011;7044;53.286;8.534;2022-08-21T04:48:26;4.75;;;2.08;;
13943;SDS011;7044;53.286;8.534;2022-08-21T04:50:55;6.80;;;2.70;;
13943;SDS011;7044;53.286;8.534;2022-08-21T04:53:27;3.25;;;2.00;;
13943;SDS011;7044;53.286;8.534;2022-08-21T04:56:00;3.75;;;2.20;;
13943;SDS011;7044;53.286;8.534;2022-08-21T04:58:29;4.45;;;2.60;;
13943;SDS011;7044;53.286;8.534;2022-08-21T05:00:58;3.90;;;2.42;;
13943;SDS011;7044;53.286;8.534;2022-08-21T05:03:28;5.45;;;2.80;;
13943;SDS011;7044;53.286;8.534;2022-08-21T05:05:56;4.43;;;2.30;;
13943;SDS011;7044;53.286;8.534;2022-08-21T05:08:23;3.50;;;1.92;;
13943;SDS011;7044;53.286;8.534;2022-08-21T05:10:53;6.30;;;2.35;;
13943;SDS011;7044;53.286;8.534;2022-08-21T05:13:21;2.50;;;2.15;;
13943;SDS011;7044;53.286;8.534;2022-08-21T05:15:48;4.43;;;1.90;;
13943;SDS011;7044;53.286;8.534;2022-08-21T05:18:15;2.63;;;2.10;;
13943;SDS011;7044;53.286;8.534;2022-08-21T05:23:15;4.43;;;2.10;;
13943;SDS011;7044;53.286;8.534;2022-08-21T05:25:42;3.35;;;2.30;;
13943;SDS011;7044;53.286;8.534;2022-08-21T05:28:09;4.45;;;2.45;;
13943;SDS011;7044;53.286;8.534;2022-08-21T05:30:37;3.00;;;2.42;;
13943;SDS011;7044;53.286;8.534;2022-08-21T05:33:06;4.28;;;2.53;;
13943;SDS011;7044;53.286;8.534;2022-08-21T05:35:33;8.02;;;2.67;;
13943;SDS011;7044;53.286;8.534;2022-08-21T05:38:00;5.13;;;2.50;;
13943;SDS011;7044;53.286;8.534;2022-08-21T05:40:29;4.45;;;2.28;;
13943;SDS011;7044;53.286;8.534;2022-08-21T05:42:56;7.70;;;2.58;;
13943;SDS011;7044;53.286;8.534;2022-08-21T05:45:25;5.72;;;2.88;;
13943;SDS011;7044;53.286;8.534;2022-08-21T05:47:53;4.80;;;2.58;;
13943;SDS011;7044;53.286;8.534;2022-08-21T05:50:20;6.38;;;2.63;;
13943;SDS011;7044;53.286;8.534;2022-08-21T05:52:47;5.50;;;3.15;;
13943;SDS011;7044;53.286;8.534;2022-08-21T05:55:14;6.55;;;3.28;;
13943;SDS011;7044;53.286;8.534;2022-08-21T05:57:42;5.35;;;3.20;;
13943;SDS011;7044;53.286;8.534;2022-08-21T06:00:10;4.53;;;3.58;;
13943;SDS011;7044;53.286;8.534;2022-08-21T06:02:38;6.55;;;3.95;;
13943;SDS011;7044;53.286;8.534;2022-08-21T06:05:05;8.25;;;4.22;;
13943;SDS011;7044;53.286;8.534;2022-08-21T06:07:32;9.20;;;4.50;;
13943;SDS011;7044;53.286;8.534;2022-08-21T06:10:12;9.98;;;4.40;;
13943;SDS011;7044;53.286;8.534;2022-08-21T06:12:39;5.55;;;4.50;;
13943;SDS011;7044;53.286;8.534;2022-08-21T06:15:21;12.02;;;4.82;;
13943;SDS011;7044;53.286;8.534;2022-08-21T06:17:48;7.25;;;4.38;;
13943;SDS011;7044;53.286;8.534;2022-08-21T06:20:14;7.07;;;4.93;;
13943;SDS011;7044;53.286;8.534;2022-08-21T06:22:41;5.40;;;4.45;;
13943;SDS011;7044;53.286;8.534;2022-08-21T06:25:08;5.32;;;4.25;;
13943;SDS011;7044;53.286;8.534;2022-08-21T06:27:35;10.02;;;4.90;;
13943;SDS011;7044;53.286;8.534;2022-08-21T06:30:02;7.22;;;4.53;;
13943;SDS011;7044;53.286;8.534;2022-08-21T06:32:31;8.25;;;4.30;;
13943;SDS011;7044;53.286;8.534;2022-08-21T06:34:58;10.68;;;5.00;;
13943;SDS011;7044;53.286;8.534;2022-08-21T06:37:25;8.32;;;4.70;;
13943;SDS011;7044;53.286;8.534;2022-08-21T06:39:52;8.57;;;5.07;;
13943;SDS011;7044;53.286;8.534;2022-08-21T06:42:19;7.38;;;4.60;;
13943;SDS011;7044;53.286;8.534;2022-08-21T06:44:46;10.57;;;5.20;;
13943;SDS011;7044;53.286;8.534;2022-08-21T06:47:13;9.70;;;4.53;;
13943;SDS011;7044;53.286;8.534;2022-08-21T06:49:42;10.18;;;4.72;;
13943;SDS011;7044;53.286;8.534;2022-08-21T06:52:09;7.05;;;4.80;;
13943;SDS011;7044;53.286;8.534;2022-08-21T06:54:37;8.27;;;5.20;;
13943;SDS011;7044;53.286;8.534;2022-08-21T06:57:04;11.60;;;5.10;;
13943;SDS011;7044;53.286;8.534;2022-08-21T06:59:31;5.97;;;4.90;;
13943;SDS011;7044;53.286;8.534;2022-08-21T07:01:58;9.10;;;4.55;;
13943;SDS011;7044;53.286;8.534;2022-08-21T07:04:25;6.10;;;5.25;;
13943;SDS011;7044;53.286;8.534;2022-08-21T07:06:54;7.32;;;4.88;;
13943;SDS011;7044;53.286;8.534;2022-08-21T07:09:20;10.75;;;5.85;;
13943;SDS011;7044;53.286;8.534;2022-08-21T07:11:48;10.18;;;5.05;;
13943;SDS011;7044;53.286;8.534;2022-08-21T07:14:18;9.77;;;5.25;;
13943;SDS011;7044;53.286;8.534;2022-08-21T07:16:45;10.25;;;5.03;;
13943;SDS011;7044;53.286;8.534;2022-08-21T07:19:11;7.75;;;5.40;;
13943;SDS011;7044;53.286;8.534;2022-08-21T07:21:38;12.95;;;6.20;;
13943;SDS011;7044;53.286;8.534;2022-08-21T07:24:06;13.07;;;5.10;;
13943;SDS011;7044;53.286;8.534;2022-08-21T07:26:33;6.20;;;3.85;;
13943;SDS011;7044;53.286;8.534;2022-08-21T07:29:00;8.32;;;4.82;;
13943;SDS011;7044;53.286;8.534;2022-08-21T07:31:27;8.05;;;4.25;;
13943;SDS011;7044;53.286;8.534;2022-08-21T07:33:55;12.88;;;4.75;;
13943;SDS011;7044;53.286;8.534;2022-08-21T07:36:22;7.32;;;3.70;;
13943;SDS011;7044;53.286;8.534;2022-08-21T07:38:49;7.20;;;4.00;;
13943;SDS011;7044;53.286;8.534;2022-08-21T07:41:18;7.05;;;3.50;;
13943;SDS011;7044;53.286;8.534;2022-08-21T07:43:46;7.50;;;3.30;;
13943;SDS011;7044;53.286;8.534;2022-08-21T07:46:13;6.30;;;3.47;;
13943;SDS011;7044;53.286;8.534;2022-08-21T07:48:41;13.30;;;4.05;;
13943;SDS011;7044;53.286;8.534;2022-08-21T07:51:09;6.45;;;3.42;;
13943;SDS011;7044;53.286;8.534;2022-08-21T07:53:37;12.85;;;3.75;;
13943;SDS011;7044;53.286;8.534;2022-08-21T07:56:05;3.78;;;3.13;;
13943;SDS011;7044;53.286;8.534;2022-08-21T07:58:34;5.38;;;3.50;;
13943;SDS011;7044;53.286;8.534;2022-08-21T08:01:01;7.68;;;3.33;;
13943;SDS011;7044;53.286;8.534;2022-08-21T08:03:28;6.35;;;3.15;;
13943;SDS011;7044;53.286;8.534;2022-08-21T08:05:55;4.47;;;2.63;;
13943;SDS011;7044;53.286;8.534;2022-08-21T08:08:22;7.07;;;2.83;;
13943;SDS011;7044;53.286;8.534;2022-08-21T08:10:49;4.03;;;2.45;;
13943;SDS011;7044;53.286;8.534;2022-08-21T08:13:16;8.13;;;3.00;;
13943;SDS011;7044;53.286;8.534;2022-08-21T08:15:45;3.65;;;2.47;;
13943;SDS011;7044;53.286;8.534;2022-08-21T08:18:12;6.45;;;2.97;;
13943;SDS011;7044;53.286;8.534;2022-08-21T08:20:39;7.20;;;2.90;;
13943;SDS011;7044;53.286;8.534;2022-08-21T08:23:06;10.98;;;3.65;;
13943;SDS011;7044;53.286;8.534;2022-08-21T08:25:33;7.45;;;3.00;;
13943;SDS011;7044;53.286;8.534;2022-08-21T08:27:59;7.45;;;2.55;;
13943;SDS011;7044;53.286;8.534;2022-08-21T08:30:26;15.93;;;3.33;;
13943;SDS011;7044;53.286;8.534;2022-08-21T08:32:55;7.82;;;2.90;;
13943;SDS011;7044;53.286;8.534;2022-08-21T08:35:22;7.57;;;3.25;;
13943;SDS011;7044;53.286;8.534;2022-08-21T08:37:50;7.43;;;2.88;;
13943;SDS011;7044;53.286;8.534;2022-08-21T08:40:18;4.78;;;2.60;;
13943;SDS011;7044;53.286;8.534;2022-08-21T08:42:48;6.72;;;2.40;;
13943;SDS011;7044;53.286;8.534;2022-08-21T08:45:16;11.23;;;3.20;;
13943;SDS011;7044;53.286;8.534;2022-08-21T08:47:47;5.78;;;3.00;;
13943;SDS011;7044;53.286;8.534;2022-08-21T08:50:23;5.50;;;2.85;;
13943;SDS011;7044;53.286;8.534;2022-08-21T08:52:54;6.60;;;3.40;;
13943;SDS011;7044;53.286;8.534;2022-08-21T08:55:28;5.55;;;2.50;;
13943;SDS011;7044;53.286;8.534;2022-08-21T08:57:59;11.00;;;2.90;;
13943;SDS011;7044;53.286;8.534;2022-08-21T09:00:27;4.90;;;2.75;;
13943;SDS011;7044;53.286;8.534;2022-08-21T09:02:55;3.47;;;2.08;;
13943;SDS011;7044;53.286;8.534;2022-08-21T09:05:26;5.35;;;2.15;;
13943;SDS011;7044;53.286;8.534;2022-08-21T09:08:08;5.95;;;2.20;;
13943;SDS011;7044;53.286;8.534;2022-08-21T09:10:57;5.03;;;2.15;;
13943;SDS011;7044;53.286;8.534;2022-08-21T09:13:31;6.88;;;2.63;;
13943;SDS011;7044;53.286;8.534;2022-08-21T09:16:10;6.80;;;1.95;;
13943;SDS011;7044;53.286;8.534;2022-08-21T09:18:48;7.43;;;2.05;;
13943;SDS011;7044;53.286;8.534;2022-08-21T09:21:26;3.92;;;1.90;;
13943;SDS011;7044;53.286;8.534;2022-08-21T09:24:01;4.05;;;1.65;;
13943;SDS011;7044;53.286;8.534;2022-08-21T09:26:30;4.50;;;2.03;;
13943;SDS011;7044;53.286;8.534;2022-08-21T09:29:08;5.28;;;1.63;;
13943;SDS011;7044;53.286;8.534;2022-08-21T09:31:39;2.95;;;1.60;;
13943;SDS011;7044;53.286;8.534;2022-08-21T09:34:06;6.38;;;2.03;;
13943;SDS011;7044;53.286;8.534;2022-08-21T09:36:38;5.90;;;2.38;;
13943;SDS011;7044;53.286;8.534;2022-08-21T09:39:05;6.38;;;2.47;;
13943;SDS011;7044;53.286;8.534;2022-08-21T09:41:35;5.75;;;2.05;;
13943;SDS011;7044;53.286;8.534;2022-08-21T09:44:03;5.63;;;2.28;;
13943;SDS011;7044;53.286;8.534;2022-08-21T09:46:31;10.43;;;1.95;;
13943;SDS011;7044;53.286;8.534;2022-08-21T09:49:00;6.00;;;2.25;;
13943;SDS011;7044;53.286;8.534;2022-08-21T09:51:29;5.60;;;2.22;;
13943;SDS011;7044;53.286;8.534;2022-08-21T09:54:10;10.02;;;1.98;;
13943;SDS011;7044;53.286;8.534;2022-08-21T09:56:51;3.33;;;1.75;;
13943;SDS011;7044;53.286;8.534;2022-08-21T09:59:36;7.65;;;2.45;;
13943;SDS011;7044;53.286;8.534;2022-08-21T10:02:14;6.47;;;2.20;;
13943;SDS011;7044;53.286;8.534;2022-08-21T10:04:52;4.85;;;2.22;;
13943;SDS011;7044;53.286;8.534;2022-08-21T10:07:22;6.03;;;2.30;;
13943;SDS011;7044;53.286;8.534;2022-08-21T10:09:59;12.13;;;2.55;;
13943;SDS011;7044;53.286;8.534;2022-08-21T10:12:32;6.03;;;2.08;;
13943;SDS011;7044;53.286;8.534;2022-08-21T10:15:08;6.25;;;1.98;;
13943;SDS011;7044;53.286;8.534;2022-08-21T10:17:47;4.25;;;2.30;;
13943;SDS011;7044;53.286;8.534;2022-08-21T10:20:25;4.40;;;1.60;;
13943;SDS011;7044;53.286;8.534;2022-08-21T10:23:02;3.03;;;1.52;;
13943;SDS011;7044;53.286;8.534;2022-08-21T10:25:40;5.57;;;1.67;;
13943;SDS011;7044;53.286;8.534;2022-08-21T10:28:11;4.82;;;2.00;;
13943;SDS011;7044;53.286;8.534;2022-08-21T10:30:46;6.93;;;2.00;;
13943;SDS011;7044;53.286;8.534;2022-08-21T10:33:20;5.15;;;1.60;;
13943;SDS011;7044;53.286;8.534;2022-08-21T10:35:52;7.07;;;1.95;;
13943;SDS011;7044;53.286;8.534;2022-08-21T10:41:27;4.30;;;1.95;;
13943;SDS011;7044;53.286;8.534;2022-08-21T10:44:04;7.68;;;2.03;;
13943;SDS011;7044;53.286;8.534;2022-08-21T10:46:47;3.42;;;1.70;;
13943;SDS011;7044;53.286;8.534;2022-08-21T10:49:22;8.48;;;1.88;;
13943;SDS011;7044;53.286;8.534;2022-08-21T10:51:56;2.85;;;1.80;;
13943;SDS011;7044;53.286;8.534;2022-08-21T10:54:38;5.45;;;2.03;;
13943;SDS011;7044;53.286;8.534;2022-08-21T10:57:15;5.22;;;1.50;;
13943;SDS011;7044;53.286;8.534;2022-08-21T10:59:49;3.20;;;1.67;;
13943;SDS011;7044;53.286;8.534;2022-08-21T11:02:22;3.97;;;1.70;;
13943;SDS011;7044;53.286;8.534;2022-08-21T11:04:56;7.75;;;1.70;;
13943;SDS011;7044;53.286;8.534;2022-08-21T11:07:26;5.07;;;1.83;;
13943;SDS011;7044;53.286;8.534;2022-08-21T11:09:57;4.72;;;1.90;;
13943;SDS011;7044;53.286;8.534;2022-08-21T11:12:31;2.55;;;1.45;;
13943;SDS011;7044;53.286;8.534;2022-08-21T11:15:07;2.95;;;1.25;;
13943;SDS011;7044;53.286;8.534;2022-08-21T11:17:47;3.08;;;1.52;;
13943;SDS011;7044;53.286;8.534;2022-08-21T11:20:22;5.82;;;1.92;;
13943;SDS011;7044;53.286;8.534;2022-08-21T11:22:56;2.67;;;1.48;;
13943;SDS011;7044;53.286;8.534;2022-08-21T11:25:29;2.35;;;1.40;;
13943;SDS011;7044;53.286;8.534;2022-08-21T11:28:05;3.67;;;1.60;;
13943;SDS011;7044;53.286;8.534;2022-08-21T11:30:39;10.13;;;2.10;;
13943;SDS011;7044;53.286;8.534;2022-08-21T11:33:19;4.20;;;1.58;;
13943;SDS011;7044;53.286;8.534;2022-08-21T11:35:54;6.10;;;1.80;;
13943;SDS011;7044;53.286;8.534;2022-08-21T11:38:32;5.40;;;1.52;;
13943;SDS011;7044;53.286;8.534;2022-08-21T11:41:05;2.42;;;1.38;;
13943;SDS011;7044;53.286;8.534;2022-08-21T11:43:44;4.25;;;1.35;;
13943;SDS011;7044;53.286;8.534;2022-08-21T11:46:16;5.22;;;1.85;;
13943;SDS011;7044;53.286;8.534;2022-08-21T11:48:55;3.42;;;1.60;;
13943;SDS011;7044;53.286;8.534;2022-08-21T11:51:32;3.20;;;1.52;;
13943;SDS011;7044;53.286;8.534;2022-08-21T11:54:04;2.38;;;1.35;;
13943;SDS011;7044;53.286;8.534;2022-08-21T11:56:38;5.47;;;1.27;;
13943;SDS011;7044;53.286;8.534;2022-08-21T11:59:13;3.08;;;1.52;;
13943;SDS011;7044;53.286;8.534;2022-08-21T12:01:45;1.15;;;1.05;;
13943;SDS011;7044;53.286;8.534;2022-08-21T12:04:17;6.13;;;1.48;;
13943;SDS011;7044;53.286;8.534;2022-08-21T12:09:55;4.53;;;1.40;;
13943;SDS011;7044;53.286;8.534;2022-08-21T12:12:36;1.42;;;1.30;;
13943;SDS011;7044;53.286;8.534;2022-08-21T12:15:15;3.72;;;1.40;;
13943;SDS011;7044;53.286;8.534;2022-08-21T12:17:54;5.18;;;1.40;;
13943;SDS011;7044;53.286;8.534;2022-08-21T12:20:33;6.32;;;1.75;;
13943;SDS011;7044;53.286;8.534;2022-08-21T12:23:16;2.60;;;1.42;;
13943;SDS011;7044;53.286;8.534;2022-08-21T12:26:10;4.80;;;1.50;;
13943;SDS011;7044;53.286;8.534;2022-08-21T12:28:46;8.38;;;1.63;;
13943;SDS011;7044;53.286;8.534;2022-08-21T12:31:22;10.00;;;1.77;;
13943;SDS011;7044;53.286;8.534;2022-08-21T12:33:51;7.03;;;1.73;;
13943;SDS011;7044;53.286;8.534;2022-08-21T12:36:41;4.43;;;1.73;;
13943;SDS011;7044;53.286;8.534;2022-08-21T12:39:12;5.25;;;1.70;;
13943;SDS011;7044;53.286;8.534;2022-08-21T12:48:31;1.45;;;1.33;;
13943;SDS011;7044;53.286;8.534;2022-08-21T12:51:08;2.38;;;1.63;;
13943;SDS011;7044;53.286;8.534;2022-08-21T12:53:40;2.65;;;1.45;;
13943;SDS011;7044;53.286;8.534;2022-08-21T12:56:11;2.85;;;1.83;;
13943;SDS011;7044;53.286;8.534;2022-08-21T12:58:40;4.43;;;1.48;;
13943;SDS011;7044;53.286;8.534;2022-08-21T13:01:13;2.67;;;1.60;;
13943;SDS011;7044;53.286;8.534;2022-08-21T13:03:46;2.38;;;1.50;;
13943;SDS011;7044;53.286;8.534;2022-08-21T13:06:14;2.63;;;1.20;;
13943;SDS011;7044;53.286;8.534;2022-08-21T13:08:42;4.47;;;1.77;;
13943;SDS011;7044;53.286;8.534;2022-08-21T13:11:11;2.30;;;1.45;;
13943;SDS011;7044;53.286;8.534;2022-08-21T13:13:42;4.13;;;1.48;;
13943;SDS011;7044;53.286;8.534;2022-08-21T13:16:13;4.90;;;1.45;;
13943;SDS011;7044;53.286;8.534;2022-08-21T13:18:53;3.85;;;1.52;;
13943;SDS011;7044;53.286;8.534;2022-08-21T13:21:20;4.38;;;1.70;;
13943;SDS011;7044;53.286;8.534;2022-08-21T13:23:47;1.90;;;1.50;;
13943;SDS011;7044;53.286;8.534;2022-08-21T13:26:15;3.13;;;1.75;;
13943;SDS011;7044;53.286;8.534;2022-08-21T13:28:43;3.60;;;1.55;;
13943;SDS011;7044;53.286;8.534;2022-08-21T13:31:12;3.63;;;1.90;;
13943;SDS011;7044;53.286;8.534;2022-08-21T13:33:44;1.98;;;1.30;;
13943;SDS011;7044;53.286;8.534;2022-08-21T13:36:14;4.22;;;1.70;;
13943;SDS011;7044;53.286;8.534;2022-08-21T13:38:44;2.03;;;1.38;;
13943;SDS011;7044;53.286;8.534;2022-08-21T13:41:13;4.45;;;1.50;;
13943;SDS011;7044;53.286;8.534;2022-08-21T13:43:48;10.20;;;1.70;;
13943;SDS011;7044;53.286;8.534;2022-08-21T13:46:17;5.22;;;1.55;;
13943;SDS011;7044;53.286;8.534;2022-08-21T13:48:46;3.53;;;1.58;;
13943;SDS011;7044;53.286;8.534;2022-08-21T13:51:15;3.17;;;1.50;;
13943;SDS011;7044;53.286;8.534;2022-08-21T13:53:44;3.85;;;1.58;;
13943;SDS011;7044;53.286;8.534;2022-08-21T13:56:21;4.45;;;1.50;;
13943;SDS011;7044;53.286;8.534;2022-08-21T13:58:49;2.35;;;1.33;;
13943;SDS011;7044;53.286;8.534;2022-08-21T14:01:18;2.35;;;1.20;;
13943;SDS011;7044;53.286;8.534;2022-08-21T14:03:49;3.55;;;1.50;;
13943;SDS011;7044;53.286;8.534;2022-08-21T14:06:21;4.50;;;1.40;;
13943;SDS011;7044;53.286;8.534;2022-08-21T14:08:51;2.35;;;1.55;;
13943;SDS011;7044;53.286;8.534;2022-08-21T14:11:21;4.72;;;1.40;;
13943;SDS011;7044;53.286;8.534;2022-08-21T14:13:48;3.60;;;1.20;;
13943;SDS011;7044;53.286;8.534;2022-08-21T14:16:22;2.78;;;1.40;;
13943;SDS011;7044;53.286;8.534;2022-08-21T14:18:52;2.20;;;1.30;;
13943;SDS011;7044;53.286;8.534;2022-08-21T14:21:32;3.40;;;1.30;;
13943;SDS011;7044;53.286;8.534;2022-08-21T14:26:19;4.18;;;1.40;;
13943;SDS011;7044;53.286;8.534;2022-08-21T14:28:45;3.67;;;1.52;;
13943;SDS011;7044;53.286;8.534;2022-08-21T14:31:14;4.57;;;1.52;;
13943;SDS011;7044;53.286;8.534;2022-08-21T14:33:42;1.75;;;1.13;;
13943;SDS011;7044;53.286;8.534;2022-08-21T14:36:09;2.60;;;1.60;;
13943;SDS011;7044;53.286;8.534;2022-08-21T14:38:36;4.80;;;1.42;;
13943;SDS011;7044;53.286;8.534;2022-08-21T14:41:08;3.00;;;1.65;;
13943;SDS011;7044;53.286;8.534;2022-08-21T14:43:43;6.03;;;1.75;;
13943;SDS011;7044;53.286;8.534;2022-08-21T14:46:11;2.47;;;1.23;;
13943;SDS011;7044;53.286;8.534;2022-08-21T14:48:50;3.15;;;1.40;;
13943;SDS011;7044;53.286;8.534;2022-08-21T14:51:17;2.80;;;1.27;;
13943;SDS011;7044;53.286;8.534;2022-08-21T14:53:44;11.13;;;1.80;;
13943;SDS011;7044;53.286;8.534;2022-08-21T14:56:11;2.28;;;1.30;;
13943;SDS011;7044;53.286;8.534;2022-08-21T14:58:40;5.80;;;1.67;;
13943;SDS011;7044;53.286;8.534;2022-08-21T15:01:10;4.85;;;1.50;;
13943;SDS011;7044;53.286;8.534;2022-08-21T15:03:39;3.25;;;1.52;;
13943;SDS011;7044;53.286;8.534;2022-08-21T15:06:07;4.40;;;1.38;;
13943;SDS011;7044;53.286;8.534;2022-08-21T15:08:34;2.60;;;1.17;;
13943;SDS011;7044;53.286;8.534;2022-08-21T15:11:01;2.55;;;1.33;;
13943;SDS011;7044;53.286;8.534;2022-08-21T15:13:29;2.53;;;1.38;;
13943;SDS011;7044;53.286;8.534;2022-08-21T15:15:56;2.17;;;1.17;;
13943;SDS011;7044;53.286;8.534;2022-08-21T15:18:26;3.75;;;1.30;;
13943;SDS011;7044;53.286;8.534;2022-08-21T15:20:54;2.95;;;1.52;;
13943;SDS011;7044;53.286;8.534;2022-08-21T15:23:21;2.45;;;1.35;;
13943;SDS011;7044;53.286;8.534;2022-08-21T15:25:48;3.60;;;1.30;;
13943;SDS011;7044;53.286;8.534;2022-08-21T15:28:16;2.70;;;0.95;;
13943;SDS011;7044;53.286;8.534;2022-08-21T15:30:45;3.15;;;1.30;;
13943;SDS011;7044;53.286;8.534;2022-08-21T15:33:12;4.70;;;1.40;;
13943;SDS011;7044;53.286;8.534;2022-08-21T15:35:40;1.65;;;1.10;;